createdAt,value
2019-01-30T02:27:37.994Z,0.19
2019-01-30T02:50:50.092Z,0.18
2019-01-30T02:54:37.266Z,0.22
2019-01-30T03:39:21.021Z,0.40
2019-01-30T06:48:34.032Z,0.76
2019-01-30T07:04:37.417Z,0.79
2019-01-30T09:51:12.382Z,2.68
2019-01-30T14:57:33.177Z,2.92
2019-01-30T15:12:57.784Z,2.72
2019-01-30T15:15:38.046Z,2.67
2019-01-30T15:18:32.343Z,2.63
2019-01-30T16:16:48.699Z,2.30
2019-01-30T16:19:46.340Z,2.30
2019-01-30T16:31:59.899Z,2.20
2019-01-30T17:49:49.318Z,2.41
2019-01-30T17:52:39.925Z,2.25
2019-01-30T18:07:41.609Z,2.52
2019-01-30T18:10:30.754Z,2.57
2019-01-30T18:13:04.905Z,2.36
2019-01-30T18:15:35.727Z,2.35
2019-01-30T18:18:22.238Z,2.39
2019-01-30T18:27:22.740Z,2.30
2019-01-30T18:33:21.470Z,2.48
2019-01-30T18:36:41.133Z,2.42
2019-01-30T18:39:25.389Z,2.39
2019-01-30T18:42:39.191Z,2.43
2019-01-30T18:45:06.568Z,2.60
2019-01-30T18:47:38.616Z,2.44
2019-01-30T18:50:31.745Z,2.55
2019-01-30T18:53:37.608Z,2.44
2019-01-30T18:56:23.781Z,2.44
2019-01-30T18:59:10.838Z,2.46
2019-01-30T19:02:05.343Z,2.45
2019-01-30T19:07:19.101Z,2.34
2019-01-30T19:10:02.900Z,2.37
2019-01-30T19:12:41.962Z,2.32
2019-01-30T19:15:22.742Z,2.48
2019-01-30T19:18:24.696Z,2.41
2019-01-30T19:23:52.844Z,2.49
2019-01-30T19:26:38.725Z,2.47
2019-01-30T19:29:21.470Z,2.48
2019-01-30T19:32:15.119Z,2.45
2019-01-30T19:34:54.305Z,2.57
2019-01-30T19:37:31.285Z,2.40
2019-01-30T19:40:05.469Z,2.63
2019-01-30T19:43:16.808Z,2.61
2019-01-30T19:46:19.835Z,2.42
2019-01-30T19:49:12.550Z,2.51
2019-01-30T19:52:10.266Z,2.65
2019-01-30T19:54:51.573Z,2.58
2019-01-30T19:57:24.742Z,2.55
2019-01-30T20:00:01.457Z,2.51
2019-01-30T20:03:08.507Z,2.52
2019-01-30T20:08:32.831Z,2.64
2019-01-30T20:11:03.937Z,2.67
2019-01-30T20:13:44.429Z,2.62
2019-01-30T20:19:23.667Z,2.57
2019-01-30T20:22:18.941Z,2.66
2019-01-30T20:25:06.159Z,2.59
2019-01-30T20:28:23.925Z,2.38
2019-01-30T20:30:56.328Z,2.46
2019-01-30T20:33:30.962Z,2.54
2019-01-30T20:39:17.447Z,2.46
2019-01-30T20:45:12.337Z,2.51
2019-01-30T20:48:08.122Z,2.38
2019-01-30T20:51:08.534Z,2.48
2019-01-30T20:56:45.895Z,2.36
2019-01-30T20:59:30.664Z,2.32
2019-01-30T21:02:09.256Z,2.43
2019-01-30T21:04:57.921Z,2.59
2019-01-30T21:07:51.135Z,2.36
2019-01-30T21:11:00.163Z,2.49
2019-01-30T21:13:46.696Z,2.47
2019-01-30T21:16:27.611Z,2.68
2019-01-30T21:19:15.093Z,2.81
2019-01-30T21:21:57.046Z,2.75
2019-01-30T21:24:46.557Z,2.61
2019-01-30T21:27:40.634Z,2.17
2019-01-30T21:30:22.230Z,2.65
2019-01-30T21:33:03.571Z,2.44
2019-01-30T21:38:55.611Z,2.47
2019-01-30T21:53:55.723Z,2.55
2019-01-30T21:56:24.437Z,2.30
2019-01-30T21:58:53.081Z,2.56
2019-01-30T22:01:21.947Z,2.64
2019-01-30T22:03:52.227Z,2.19
2019-01-30T22:06:20.945Z,2.30
2019-01-30T22:09:27.329Z,2.09
2019-01-30T22:11:55.877Z,2.05
2019-01-30T22:14:24.390Z,2.49
2019-01-30T22:16:54.492Z,2.59
2019-01-30T22:19:23.045Z,2.38
2019-01-30T22:22:11.160Z,2.25
2019-01-30T22:24:39.696Z,2.14
2019-01-30T22:27:08.219Z,2.33
2019-01-30T22:29:36.659Z,2.27
2019-01-30T22:32:05.545Z,1.89
2019-01-30T22:34:34.010Z,2.03
2019-01-30T22:37:02.466Z,1.83
2019-01-30T22:39:30.932Z,2.07
2019-01-30T22:42:02.403Z,1.80
2019-01-30T22:44:29.530Z,2.04
2019-01-30T22:46:57.971Z,1.94
2019-01-30T22:49:26.417Z,1.89
2019-01-30T22:51:54.885Z,1.77
2019-01-30T22:54:23.283Z,1.69
2019-01-30T22:56:51.702Z,1.71
2019-01-30T22:59:20.707Z,1.94
2019-01-30T23:01:50.247Z,1.84
2019-01-30T23:04:30.802Z,1.84
2019-01-30T23:07:09.582Z,2.10
2019-01-30T23:09:49.635Z,2.14
2019-01-30T23:12:23.617Z,1.56
2019-01-30T23:14:57.875Z,1.72
2019-01-30T23:17:49.119Z,1.56
2019-01-30T23:20:19.451Z,1.82
2019-01-30T23:23:24.310Z,1.49
2019-01-30T23:26:01.507Z,1.39
2019-01-30T23:28:44.848Z,1.83
2019-01-30T23:31:33.777Z,1.50
2019-01-30T23:34:05.316Z,1.58
2019-01-30T23:36:51.629Z,1.61
2019-01-30T23:43:16.130Z,1.08
2019-01-30T23:45:59.685Z,0.90
2019-01-30T23:48:33.793Z,0.95
2019-01-30T23:51:09.249Z,0.98
2019-01-30T23:53:52.720Z,0.98
2019-01-30T23:56:46.076Z,1.10
2019-01-30T23:59:26.648Z,1.28
